Petroleum, Indiana
Current Conditions -  °F | °C
As of 4:55 PM on Friday 24 Oct 2014 (Local Time) from KHHG Reporting Station
Overcast Overcast  
Wind Chill: 62°   Ceiling: 3500
Heat Index: 62°   Visibility: 10mi
Dew Point: 51°   Wind: 8mph
Humidity: 69%   Direction: 260°W
Pressure: 30"   Gusts: NA
Location:  40.61°N, 85.15°W
Report Text: KHHG 242055Z AUTO 26007KT 10SM OVC035 17/11 A3000 RMK AO2 T01660108
Loading
Personal Weather Stations






























Interactive Weather Map
Tropical Storm Tracking
New forecast layout! Learn more

10-Day Weather Forecast

Advertisements
Track Severe Weather on mobile